Time,TemperatureF,DewpointF,PressureIn,WindDirection,WindDirectionDegrees,WindSpeedMPH,WindSpeedGustMPH,Humidity,HourlyPrecipIn,Conditions,Clouds,dailyrainin,SoftwareType,DateUTC
2013-03-16 00:02:00,55.0,41.0,29.74,NNE,14,5.0,8.0,58,0.00,,,0.00,,2013-03-16 05:02:00,
2013-03-16 00:12:00,55.0,41.0,29.74,NNE,14,5.0,8.0,58,0.00,,,0.00,,2013-03-16 05:12:00,
2013-03-16 00:21:00,54.0,41.0,29.73,NW,324,3.0,6.0,61,0.00,,,0.00,,2013-03-16 05:21:00,
2013-03-16 00:32:00,53.0,41.0,29.73,NW,323,3.0,7.0,64,0.00,,,0.00,,2013-03-16 05:32:00,
2013-03-16 00:42:00,53.0,41.0,29.73,NW,323,3.0,7.0,64,0.00,,,0.00,,2013-03-16 05:42:00,
2013-03-16 00:53:00,52.0,41.0,29.73,WNW,297,3.0,11.0,67,0.00,,,0.00,,2013-03-16 05:53:00,
2013-03-16 01:02:00,52.0,42.0,29.74,North,4,5.0,11.0,68,0.00,,,0.00,,2013-03-16 06:02:00,
2013-03-16 01:12:00,52.0,42.0,29.74,North,4,5.0,11.0,68,0.00,,,0.00,,2013-03-16 06:12:00,
2013-03-16 01:22:00,51.0,42.0,29.77,North,352,5.0,13.0,71,0.00,,,0.00,,2013-03-16 06:22:00,
2013-03-16 01:32:00,50.0,42.0,29.76,NNW,346,5.0,9.0,73,0.00,,,0.00,,2013-03-16 06:32:00,
2013-03-16 01:42:00,50.0,42.0,29.76,NNW,346,5.0,9.0,73,0.00,,,0.00,,2013-03-16 06:42:00,
2013-03-16 01:52:00,49.0,41.0,29.77,NNW,330,6.0,9.0,74,0.00,,,0.00,,2013-03-16 06:52:00,
2013-03-16 02:02:00,48.0,40.0,29.79,NNW,328,3.0,7.0,75,0.00,,,0.00,,2013-03-16 07:02:00,
2013-03-16 02:12:00,48.0,40.0,29.79,NNW,328,3.0,7.0,75,0.00,,,0.00,,2013-03-16 07:12:00,
2013-03-16 02:22:00,47.0,39.0,29.79,North,0,4.0,6.0,75,0.00,,,0.00,,2013-03-16 07:22:00,
2013-03-16 02:32:00,47.0,40.0,29.78,NNW,345,6.0,6.0,76,0.00,,,0.00,,2013-03-16 07:32:00,
2013-03-16 02:42:00,47.0,40.0,29.78,NNW,345,6.0,6.0,76,0.00,,,0.00,,2013-03-16 07:42:00,
2013-03-16 02:52:00,46.0,39.0,29.80,North,356,5.0,12.0,77,0.00,,,0.00,,2013-03-16 07:52:00,
2013-03-16 03:02:00,45.0,39.0,29.80,NW,320,1.0,6.0,78,0.00,,,0.00,,2013-03-16 08:02:00,
2013-03-16 03:12:00,45.0,39.0,29.80,NW,320,1.0,6.0,78,0.00,,,0.00,,2013-03-16 08:12:00,
2013-03-16 03:23:00,44.0,38.0,29.82,NW,308,2.0,9.0,78,0.00,,,0.00,,2013-03-16 08:23:00,
2013-03-16 03:32:00,43.0,37.0,29.80,NNW,339,8.0,8.0,78,0.00,,,0.00,,2013-03-16 08:32:00,
2013-03-16 03:42:00,43.0,37.0,29.80,NNW,339,8.0,8.0,78,0.00,,,0.00,,2013-03-16 08:42:00,
2013-03-16 03:52:00,43.0,37.0,29.82,North,359,0.0,3.0,78,0.00,,,0.00,,2013-03-16 08:52:00,
2013-03-16 04:01:00,42.0,36.0,29.82,NW,305,7.0,7.0,80,0.00,,,0.00,,2013-03-16 09:01:00,
2013-03-16 04:12:00,42.0,36.0,29.82,NW,305,7.0,7.0,80,0.00,,,0.00,,2013-03-16 09:12:00,
2013-03-16 04:22:00,41.0,36.0,29.83,NW,322,7.0,14.0,81,0.00,,,0.00,,2013-03-16 09:22:00,
2013-03-16 04:32:00,40.0,35.0,29.84,NNW,345,2.0,8.0,82,0.00,,,0.00,,2013-03-16 09:32:00,
2013-03-16 04:42:00,40.0,35.0,29.84,NNW,345,2.0,8.0,82,0.00,,,0.00,,2013-03-16 09:42:00,
2013-03-16 04:53:00,40.0,35.0,29.85,North,10,1.0,6.0,83,0.00,,,0.00,,2013-03-16 09:53:00,
2013-03-16 05:03:00,41.0,36.0,29.87,North,349,4.0,15.0,82,0.00,,,0.00,,2013-03-16 10:03:00,
2013-03-16 05:12:00,41.0,36.0,29.87,North,349,4.0,15.0,82,0.00,,,0.00,,2013-03-16 10:12:00,
2013-03-16 05:22:00,39.0,34.0,29.87,North,3,5.0,9.0,82,0.00,,,0.00,,2013-03-16 10:22:00,
2013-03-16 05:32:00,39.0,34.0,29.88,North,2,7.0,14.0,82,0.00,,,0.00,,2013-03-16 10:32:00,
2013-03-16 05:42:00,39.0,34.0,29.88,North,2,7.0,14.0,82,0.00,,,0.00,,2013-03-16 10:42:00,
2013-03-16 05:53:00,39.0,34.0,29.88,North,354,4.0,9.0,82,0.00,,,0.00,,2013-03-16 10:53:00,
2013-03-16 06:03:00,39.0,34.0,29.91,North,349,8.0,14.0,81,0.00,,,0.00,,2013-03-16 11:03:00,
2013-03-16 06:12:00,39.0,34.0,29.91,North,349,8.0,14.0,81,0.00,,,0.00,,2013-03-16 11:12:00,
2013-03-16 06:22:00,38.0,32.0,29.93,NNW,344,8.0,13.0,80,0.00,,,0.00,,2013-03-16 11:22:00,
2013-03-16 06:32:00,38.0,32.0,29.92,North,354,5.0,15.0,80,0.00,,,0.00,,2013-03-16 11:32:00,
2013-03-16 06:42:00,38.0,32.0,29.92,North,354,5.0,15.0,80,0.00,,,0.00,,2013-03-16 11:42:00,
2013-03-16 06:52:00,38.0,33.0,29.94,North,7,5.0,17.0,81,0.00,,,0.00,,2013-03-16 11:52:00,
2013-03-16 07:02:00,38.0,33.0,29.96,North,3,7.0,9.0,81,0.00,,,0.00,,2013-03-16 12:02:00,
2013-03-16 07:12:00,38.0,33.0,29.96,North,3,7.0,9.0,81,0.00,,,0.00,,2013-03-16 12:12:00,
2013-03-16 07:22:00,38.0,32.0,29.96,NNW,346,3.0,11.0,80,0.00,,,0.00,,2013-03-16 12:22:00,
2013-03-16 07:32:00,38.0,32.0,29.95,North,8,16.0,16.0,79,0.00,,,0.00,,2013-03-16 12:32:00,
2013-03-16 07:42:00,38.0,32.0,29.95,North,8,16.0,16.0,79,0.00,,,0.00,,2013-03-16 12:42:00,
2013-03-16 07:52:00,38.0,32.0,29.96,North,359,13.0,23.0,79,0.00,,,0.00,,2013-03-16 12:52:00,
2013-03-16 08:02:00,38.0,32.0,29.96,North,5,15.0,18.0,78,0.00,,,0.00,,2013-03-16 13:02:00,
2013-03-16 08:12:00,38.0,32.0,29.96,North,5,15.0,18.0,78,0.00,,,0.00,,2013-03-16 13:12:00,
2013-03-16 08:22:00,38.0,31.0,29.96,NNE,24,13.0,18.0,77,0.00,,,0.00,,2013-03-16 13:22:00,
2013-03-16 08:32:00,38.0,31.0,29.99,North,6,9.0,16.0,77,0.00,,,0.00,,2013-03-16 13:32:00,
2013-03-16 08:42:00,38.0,31.0,29.99,North,6,9.0,16.0,77,0.00,,,0.00,,2013-03-16 13:42:00,
2013-03-16 08:52:00,38.0,32.0,29.98,North,6,8.0,13.0,78,0.00,,,0.00,,2013-03-16 13:52:00,
2013-03-16 09:02:00,38.0,32.0,29.97,North,9,11.0,18.0,78,0.00,,,0.00,,2013-03-16 14:02:00,
2013-03-16 09:12:00,38.0,32.0,29.97,North,9,11.0,18.0,78,0.00,,,0.00,,2013-03-16 14:12:00,
2013-03-16 09:22:00,38.0,32.0,29.96,North,11,15.0,18.0,78,0.00,,,0.00,,2013-03-16 14:22:00,
2013-03-16 09:32:00,38.0,31.0,29.97,North,7,12.0,16.0,77,0.00,,,0.00,,2013-03-16 14:32:00,
2013-03-16 09:42:00,38.0,31.0,29.97,North,7,12.0,16.0,77,0.00,,,0.00,,2013-03-16 14:42:00,
2013-03-16 09:52:00,38.0,31.0,29.98,North,11,17.0,18.0,76,0.00,,,0.00,,2013-03-16 14:52:00,
2013-03-16 10:02:00,38.0,31.0,30.00,North,7,12.0,17.0,76,0.00,,,0.00,,2013-03-16 15:02:00,
2013-03-16 10:12:00,38.0,31.0,30.00,North,7,12.0,17.0,76,0.00,,,0.00,,2013-03-16 15:12:00,
2013-03-16 10:22:00,37.0,30.0,30.04,NNE,12,11.0,14.0,75,0.00,,,0.00,,2013-03-16 15:22:00,
2013-03-16 10:33:00,38.0,30.0,30.02,North,8,16.0,17.0,73,0.00,,,0.00,,2013-03-16 15:33:00,
2013-03-16 10:43:00,38.0,30.0,30.02,North,8,16.0,17.0,73,0.00,,,0.00,,2013-03-16 15:43:00,
2013-03-16 10:53:00,38.0,30.0,30.01,North,9,23.0,27.0,73,0.00,,,0.00,,2013-03-16 15:53:00,
2013-03-16 11:03:00,38.0,29.0,30.04,North,351,5.0,17.0,71,0.00,,,0.00,,2013-03-16 16:03:00,
2013-03-16 11:12:00,38.0,29.0,30.04,North,351,5.0,17.0,71,0.00,,,0.00,,2013-03-16 16:12:00,
2013-03-16 11:22:00,38.0,29.0,30.02,NNE,22,10.0,13.0,70,0.00,,,0.00,,2013-03-16 16:22:00,
2013-03-16 11:33:00,38.0,28.0,30.02,North,11,14.0,19.0,68,0.00,,,0.00,,2013-03-16 16:33:00,
2013-03-16 11:42:00,38.0,28.0,30.02,North,11,14.0,19.0,68,0.00,,,0.00,,2013-03-16 16:42:00,
2013-03-16 11:53:00,39.0,29.0,30.01,NNE,16,17.0,18.0,68,0.00,,,0.00,,2013-03-16 16:53:00,
2013-03-16 12:03:00,39.0,29.0,30.03,NNE,14,13.0,19.0,68,0.00,,,0.00,,2013-03-16 17:03:00,
2013-03-16 12:12:00,39.0,29.0,30.03,NNE,14,13.0,19.0,68,0.00,,,0.00,,2013-03-16 17:12:00,
2013-03-16 12:22:00,38.0,29.0,30.01,NNE,18,12.0,12.0,69,0.00,,,0.00,,2013-03-16 17:22:00,
2013-03-16 12:32:00,38.0,28.0,30.01,North,7,14.0,19.0,68,0.00,,,0.00,,2013-03-16 17:32:00,
2013-03-16 12:42:00,38.0,28.0,30.01,North,7,14.0,19.0,68,0.00,,,0.00,,2013-03-16 17:42:00,
2013-03-16 12:53:00,39.0,29.0,30.06,NNW,333,4.0,8.0,68,0.00,,,0.00,,2013-03-16 17:53:00,
2013-03-16 13:02:00,39.0,29.0,30.05,NNE,19,11.0,15.0,67,0.00,,,0.00,,2013-03-16 18:02:00,
2013-03-16 13:13:00,39.0,29.0,30.05,NNE,19,11.0,15.0,67,0.00,,,0.00,,2013-03-16 18:13:00,
2013-03-16 13:22:00,39.0,29.0,30.03,NE,36,8.0,14.0,67,0.00,,,0.00,,2013-03-16 18:22:00,
2013-03-16 13:32:00,39.0,29.0,30.06,North,11,8.0,10.0,67,0.00,,,0.00,,2013-03-16 18:32:00,
2013-03-16 13:42:00,39.0,29.0,30.06,North,11,8.0,10.0,67,0.00,,,0.00,,2013-03-16 18:42:00,
2013-03-16 13:53:00,39.0,29.0,30.05,NNE,12,12.0,12.0,67,0.00,,,0.00,,2013-03-16 18:53:00,
2013-03-16 14:02:00,40.0,29.0,30.04,NNE,28,12.0,14.0,65,0.00,,,0.00,,2013-03-16 19:02:00,
2013-03-16 14:12:00,40.0,29.0,30.04,NNE,28,12.0,14.0,65,0.00,,,0.00,,2013-03-16 19:12:00,
2013-03-16 14:22:00,40.0,30.0,30.05,NNE,25,14.0,14.0,66,0.00,,,0.00,,2013-03-16 19:22:00,
2013-03-16 14:32:00,39.0,29.0,30.04,North,11,14.0,17.0,66,0.00,,,0.00,,2013-03-16 19:32:00,
2013-03-16 14:42:00,39.0,29.0,30.04,North,11,14.0,17.0,66,0.00,,,0.00,,2013-03-16 19:42:00,
2013-03-16 14:53:00,40.0,30.0,30.05,North,7,7.0,13.0,66,0.00,,,0.00,,2013-03-16 19:53:00,
2013-03-16 15:02:00,40.0,29.0,30.04,North,10,9.0,10.0,64,0.00,,,0.00,,2013-03-16 20:02:00,
2013-03-16 15:12:00,40.0,29.0,30.04,North,10,9.0,10.0,64,0.00,,,0.00,,2013-03-16 20:12:00,
2013-03-16 15:22:00,40.0,28.0,30.03,NNE,23,11.0,15.0,63,0.00,,,0.00,,2013-03-16 20:22:00,
2013-03-16 15:32:00,40.0,28.0,30.01,NNE,17,9.0,13.0,63,0.00,,,0.00,,2013-03-16 20:32:00,
2013-03-16 15:42:00,40.0,28.0,30.01,NNE,17,9.0,13.0,63,0.00,,,0.00,,2013-03-16 20:42:00,
2013-03-16 15:52:00,41.0,29.0,30.01,NNE,29,8.0,15.0,62,0.00,,,0.00,,2013-03-16 20:52:00,
2013-03-16 16:02:00,41.0,28.0,30.00,NNE,18,11.0,11.0,60,0.00,,,0.00,,2013-03-16 21:02:00,
2013-03-16 16:12:00,41.0,28.0,30.00,NNE,18,11.0,11.0,60,0.00,,,0.00,,2013-03-16 21:12:00,
2013-03-16 16:22:00,42.0,28.0,30.01,NNE,18,13.0,15.0,57,0.00,,,0.00,,2013-03-16 21:22:00,
2013-03-16 16:32:00,42.0,27.0,30.01,NNE,19,9.0,12.0,56,0.00,,,0.00,,2013-03-16 21:32:00,
2013-03-16 16:43:00,42.0,27.0,30.01,NNE,19,9.0,12.0,56,0.00,,,0.00,,2013-03-16 21:43:00,
2013-03-16 16:53:00,42.0,28.0,30.02,NE,42,10.0,13.0,57,0.00,,,0.00,,2013-03-16 21:53:00,
2013-03-16 17:03:00,41.0,27.0,30.02,NNE,27,7.0,13.0,56,0.00,,,0.00,,2013-03-16 22:03:00,
2013-03-16 17:12:00,41.0,27.0,30.02,NNE,27,7.0,13.0,56,0.00,,,0.00,,2013-03-16 22:12:00,
2013-03-16 17:22:00,41.0,27.0,30.02,NNE,25,12.0,12.0,57,0.00,,,0.00,,2013-03-16 22:22:00,
2013-03-16 17:33:00,41.0,27.0,30.02,NNE,12,8.0,10.0,58,0.00,,,0.00,,2013-03-16 22:33:00,
2013-03-16 17:42:00,41.0,27.0,30.02,NNE,12,8.0,10.0,58,0.00,,,0.00,,2013-03-16 22:42:00,
2013-03-16 17:52:00,40.0,26.0,30.04,NNE,28,7.0,13.0,58,0.00,,,0.00,,2013-03-16 22:52:00,
2013-03-16 18:02:00,40.0,27.0,30.03,NE,35,7.0,11.0,59,0.00,,,0.00,,2013-03-16 23:02:00,
2013-03-16 18:12:00,40.0,27.0,30.03,NE,35,7.0,11.0,59,0.00,,,0.00,,2013-03-16 23:12:00,
2013-03-16 18:22:00,39.0,26.0,30.03,North,4,8.0,11.0,59,0.00,,,0.00,,2013-03-16 23:22:00,
2013-03-16 18:32:00,39.0,26.0,30.02,NNE,29,12.0,12.0,60,0.00,,,0.00,,2013-03-16 23:32:00,
2013-03-16 18:42:00,39.0,26.0,30.02,NNE,29,12.0,12.0,60,0.00,,,0.00,,2013-03-16 23:42:00,
2013-03-16 18:52:00,39.0,26.0,30.04,North,11,10.0,12.0,60,0.00,,,0.00,,2013-03-16 23:52:00,
2013-03-16 19:01:00,39.0,26.0,30.04,NNE,33,10.0,12.0,60,0.00,,,0.00,,2013-03-17 00:01:00,
2013-03-16 19:12:00,39.0,26.0,30.04,NNE,33,10.0,12.0,60,0.00,,,0.00,,2013-03-17 00:12:00,
2013-03-16 19:22:00,39.0,26.0,30.04,NNE,21,11.0,13.0,60,0.00,,,0.00,,2013-03-17 00:22:00,
2013-03-16 19:32:00,39.0,26.0,30.03,NNE,22,6.0,10.0,60,0.00,,,0.00,,2013-03-17 00:32:00,
2013-03-16 19:42:00,39.0,26.0,30.03,NNE,22,6.0,10.0,60,0.00,,,0.00,,2013-03-17 00:42:00,
2013-03-16 19:52:00,38.0,25.0,30.05,NNE,29,10.0,14.0,60,0.00,,,0.00,,2013-03-17 00:52:00,
2013-03-16 20:02:00,38.0,26.0,30.05,NNE,31,7.0,11.0,61,0.00,,,0.00,,2013-03-17 01:02:00,
2013-03-16 20:12:00,38.0,26.0,30.05,NNE,31,7.0,11.0,61,0.00,,,0.00,,2013-03-17 01:12:00,
2013-03-16 20:22:00,38.0,26.0,30.07,NNE,28,10.0,10.0,61,0.00,,,0.00,,2013-03-17 01:22:00,
2013-03-16 20:32:00,38.0,26.0,30.07,NE,38,7.0,11.0,61,0.00,,,0.00,,2013-03-17 01:32:00,
2013-03-16 20:42:00,38.0,26.0,30.07,NE,38,7.0,11.0,61,0.00,,,0.00,,2013-03-17 01:42:00,
2013-03-16 20:53:00,38.0,26.0,30.06,NE,38,8.0,11.0,61,0.00,,,0.00,,2013-03-17 01:53:00,
2013-03-16 21:02:00,38.0,26.0,30.07,NNE,32,6.0,10.0,61,0.00,,,0.00,,2013-03-17 02:02:00,
2013-03-16 21:12:00,38.0,26.0,30.07,NNE,32,6.0,10.0,61,0.00,,,0.00,,2013-03-17 02:12:00,
2013-03-16 21:22:00,38.0,26.0,30.07,NNE,21,7.0,9.0,61,0.00,,,0.00,,2013-03-17 02:22:00,
2013-03-16 21:33:00,37.0,25.0,30.08,NNE,28,9.0,11.0,61,0.00,,,0.00,,2013-03-17 02:33:00,
2013-03-16 21:42:00,37.0,25.0,30.08,NNE,28,9.0,11.0,61,0.00,,,0.00,,2013-03-17 02:42:00,
2013-03-16 21:52:00,37.0,25.0,30.08,NNE,29,4.0,7.0,62,0.00,,,0.00,,2013-03-17 02:52:00,
2013-03-16 22:02:00,37.0,26.0,30.06,North,11,9.0,9.0,63,0.00,,,0.00,,2013-03-17 03:02:00,
2013-03-16 22:12:00,37.0,26.0,30.06,North,11,9.0,9.0,63,0.00,,,0.00,,2013-03-17 03:12:00,
2013-03-16 22:22:00,37.0,26.0,30.08,North,9,6.0,11.0,63,0.00,,,0.00,,2013-03-17 03:22:00,
2013-03-16 22:33:00,37.0,26.0,30.08,North,9,6.0,11.0,63,0.00,,,0.00,,2013-03-17 03:33:00,
2013-03-16 22:43:00,37.0,26.0,30.08,North,9,6.0,11.0,63,0.00,,,0.00,,2013-03-17 03:43:00,
2013-03-16 22:53:00,36.0,25.0,30.08,NNE,24,11.0,16.0,63,0.00,,,0.00,,2013-03-17 03:53:00,
2013-03-16 23:03:00,36.0,24.0,30.09,NNE,24,9.0,16.0,62,0.00,,,0.00,,2013-03-17 04:03:00,
2013-03-16 23:12:00,36.0,24.0,30.09,NNE,24,9.0,16.0,62,0.00,,,0.00,,2013-03-17 04:12:00,
2013-03-16 23:23:00,36.0,25.0,30.09,NNE,14,14.0,19.0,63,0.00,,,0.00,,2013-03-17 04:23:00,
2013-03-16 23:32:00,36.0,25.0,30.08,North,9,11.0,16.0,63,0.00,,,0.00,,2013-03-17 04:32:00,
2013-03-16 23:42:00,36.0,25.0,30.08,North,9,11.0,16.0,63,0.00,,,0.00,,2013-03-17 04:42:00,
2013-03-16 23:53:00,35.0,24.0,30.09,NNE,18,7.0,12.0,64,0.00,,,0.00,,2013-03-17 04:53:00,